Time;durP1;ratioP1;P1;durP2;ratioP2;P2;SDS_P1;SDS_P2;PMS_P1;PMS_P2;Temp;Humidity;BMP_temperature;BMP_pressure;BME280_temperature;BME280_humidity;BME280_pressure;Samples;Min_cycle;Max_cycle;Signal;HPM_P1;HPM_P2
2023/03/29 00:01:18;;;;;;;1.30;1.20;;;19.60;51.20;;;;;;4966709;28;20204;-69
2023/03/29 00:03:44;;;;;;;1.20;1.10;;;19.60;51.30;;;;;;4972274;28;20185;-70
2023/03/29 00:06:14;;;;;;;1.40;1.30;;;19.60;51.20;;;;;;4982142;28;20231;-69
2023/03/29 00:08:41;;;;;;;1.40;0.93;;;19.50;51.20;;;;;;4967989;28;20225;-68
2023/03/29 00:11:07;;;;;;;1.13;1.02;;;19.60;51.30;;;;;;4964506;28;20198;-69
2023/03/29 00:13:33;;;;;;;1.58;1.00;;;19.60;51.20;;;;;;4957756;28;20185;-69
2023/03/29 00:15:58;;;;;;;1.30;1.20;;;19.60;51.30;;;;;;4957427;28;20740;-68
2023/03/29 00:18:24;;;;;;;1.35;1.23;;;19.60;51.30;;;;;;4973705;28;20188;-69
2023/03/29 00:20:55;;;;;;;1.30;1.20;;;19.50;51.20;;;;;;4974935;28;20239;-69
2023/03/29 00:23:21;;;;;;;1.30;1.20;;;19.60;51.30;;;;;;4973448;28;20189;-69
2023/03/29 00:25:47;;;;;;;1.25;1.13;;;19.50;51.20;;;;;;4969067;28;20267;-69
2023/03/29 00:28:13;;;;;;;1.33;1.10;;;19.60;51.30;;;;;;4957663;28;20190;-69
2023/03/29 00:30:40;;;;;;;1.10;1.00;;;19.50;51.20;;;;;;4970006;28;20198;-69
2023/03/29 00:33:06;;;;;;;1.15;1.08;;;19.60;51.30;;;;;;4973058;28;20197;-69
2023/03/29 00:35:32;;;;;;;2.35;1.38;;;19.60;51.30;;;;;;4957066;28;20225;-69
2023/03/29 00:37:58;;;;;;;1.50;1.10;;;19.50;51.30;;;;;;4974193;28;20182;-68
2023/03/29 00:40:24;;;;;;;1.40;1.30;;;19.50;51.20;;;;;;4965499;28;20571;-69
2023/03/29 00:42:50;;;;;;;1.45;1.35;;;19.60;51.30;;;;;;4965196;28;20193;-69
2023/03/29 00:45:18;;;;;;;1.27;1.17;;;19.60;51.40;;;;;;4972901;28;20217;-68
2023/03/29 00:47:57;;;;;;;1.42;1.25;;;19.50;51.30;;;;;;4964948;28;20198;-69
2023/03/29 00:50:46;;;;;;;1.33;1.10;;;19.50;51.30;;;;;;4972943;28;20200;-68
2023/03/29 00:53:29;;;;;;;1.48;1.38;;;19.50;51.30;;;;;;4984843;28;20209;-69
2023/03/29 00:56:28;;;;;;;1.40;1.30;;;19.50;51.40;;;;;;4956990;28;20249;-69
2023/03/29 00:59:11;;;;;;;1.80;1.40;;;19.50;51.30;;;;;;4969875;28;20186;-69
2023/03/29 01:02:05;;;;;;;1.17;1.10;;;19.50;51.40;;;;;;4953391;28;20178;-69
2023/03/29 01:04:41;;;;;;;1.20;1.10;;;19.50;51.30;;;;;;4962692;28;20193;-69
2023/03/29 01:07:29;;;;;;;1.20;1.10;;;19.50;51.30;;;;;;4947001;28;20186;-69
2023/03/29 01:10:11;;;;;;;1.40;1.30;;;19.50;51.30;;;;;;4964873;28;20193;-69
2023/03/29 01:12:47;;;;;;;1.50;1.10;;;19.50;51.40;;;;;;4988835;28;20186;-69
2023/03/29 01:15:25;;;;;;;1.50;1.23;;;19.50;51.40;;;;;;4956453;28;20316;-69
2023/03/29 01:17:54;;;;;;;2.38;1.73;;;19.50;51.40;;;;;;4988954;28;20194;-69
2023/03/29 01:20:32;;;;;;;1.35;1.25;;;19.50;51.40;;;;;;4956505;28;20291;-69
2023/03/29 01:23:33;;;;;;;1.30;1.20;;;19.50;51.40;;;;;;4969085;28;20186;-69
2023/03/29 01:26:43;;;;;;;2.03;1.10;;;19.50;51.40;;;;;;4964284;28;20249;-69
2023/03/29 01:29:44;;;;;;;1.30;1.20;;;19.50;51.40;;;;;;4913992;28;20209;-69
2023/03/29 01:32:29;;;;;;;1.35;1.25;;;19.50;51.40;;;;;;4964183;28;20194;-69
2023/03/29 01:35:20;;;;;;;1.40;1.30;;;19.50;51.40;;;;;;4972087;28;20337;-69
2023/03/29 01:38:13;;;;;;;1.33;1.10;;;19.50;51.50;;;;;;4963121;28;20221;-69
2023/03/29 01:40:39;;;;;;;1.15;1.05;;;19.50;51.40;;;;;;4950361;28;20200;-69
2023/03/29 01:43:17;;;;;;;1.10;1.02;;;19.50;51.40;;;;;;4939899;28;20182;-69
2023/03/29 01:46:01;;;;;;;1.30;1.20;;;19.50;51.40;;;;;;4964303;28;20209;-69
2023/03/29 01:48:52;;;;;;;1.40;1.20;;;19.50;51.40;;;;;;4969034;28;20198;-69
2023/03/29 01:51:38;;;;;;;1.20;1.10;;;19.50;51.40;;;;;;4971906;28;20213;-68
2023/03/29 01:54:10;;;;;;;1.30;1.20;;;19.50;51.40;;;;;;4963142;28;20218;-68
2023/03/29 01:56:41;;;;;;;1.00;0.95;;;19.50;51.40;;;;;;4966022;28;20224;-69
2023/03/29 01:59:14;;;;;;;1.83;1.35;;;19.50;51.50;;;;;;4960348;28;20190;-69
2023/03/29 02:01:50;;;;;;;1.20;1.08;;;19.50;51.50;;;;;;4974496;28;20296;-70
2023/03/29 02:04:27;;;;;;;1.30;1.20;;;19.50;51.50;;;;;;4972886;28;20197;-69
2023/03/29 02:06:56;;;;;;;2.08;1.15;;;19.50;51.40;;;;;;4988017;28;20197;-69
2023/03/29 02:09:22;;;;;;;1.20;1.10;;;19.50;51.40;;;;;;4963841;28;20313;-69
2023/03/29 02:11:50;;;;;;;1.45;1.35;;;19.50;51.50;;;;;;4971759;28;20203;-69
2023/03/29 02:14:16;;;;;;;1.83;1.15;;;19.50;51.50;;;;;;4938615;28;20618;-68
2023/03/29 02:16:44;;;;;;;2.00;1.00;;;19.50;51.50;;;;;;4972379;28;20214;-68
2023/03/29 02:19:12;;;;;;;1.00;1.00;;;19.50;51.50;;;;;;4970615;28;20217;-69
2023/03/29 02:22:02;;;;;;;1.10;1.00;;;19.50;51.50;;;;;;4968446;28;20189;-69
2023/03/29 02:24:32;;;;;;;1.05;1.02;;;19.50;51.50;;;;;;4968178;28;20229;-69
2023/03/29 02:27:00;;;;;;;1.25;1.15;;;19.40;51.40;;;;;;4971400;28;20197;-69
2023/03/29 02:29:26;;;;;;;1.38;1.05;;;19.50;51.50;;;;;;4939253;28;20232;-69
2023/03/29 02:32:21;;;;;;;1.42;1.27;;;19.50;51.50;;;;;;4968532;28;20198;-69
2023/03/29 02:35:03;;;;;;;1.30;1.20;;;19.50;51.50;;;;;;4966944;28;20217;-69
2023/03/29 02:37:33;;;;;;;1.40;1.30;;;19.40;51.40;;;;;;4973428;28;20181;-69
2023/03/29 02:40:00;;;;;;;1.20;1.10;;;19.50;51.50;;;;;;4939258;28;20304;-69
2023/03/29 02:42:27;;;;;;;1.40;1.00;;;19.50;51.50;;;;;;4971474;28;20201;-69
2023/03/29 02:44:58;;;;;;;1.40;1.17;;;19.50;51.50;;;;;;4967044;28;20304;-69
2023/03/29 02:47:31;;;;;;;1.30;1.20;;;19.50;51.50;;;;;;4956128;28;20190;-69
2023/03/29 02:49:58;;;;;;;1.13;1.00;;;19.40;51.40;;;;;;4969638;28;20672;-70
2023/03/29 02:52:34;;;;;;;1.13;1.00;;;19.50;51.50;;;;;;4971345;28;20186;-69
2023/03/29 02:55:04;;;;;;;1.38;0.88;;;19.40;51.40;;;;;;4957442;28;20225;-69
2023/03/29 02:57:31;;;;;;;1.20;1.10;;;19.40;51.40;;;;;;4969040;28;20200;-69
2023/03/29 02:59:59;;;;;;;1.20;1.10;;;19.40;51.30;;;;;;4971051;28;20197;-71
2023/03/29 03:02:26;;;;;;;1.00;1.00;;;19.40;51.30;;;;;;4947814;28;20233;-69
2023/03/29 03:04:53;;;;;;;1.00;0.95;;;19.40;51.30;;;;;;4971028;28;20685;-69
2023/03/29 03:07:20;;;;;;;1.60;1.50;;;19.40;51.40;;;;;;4939134;28;20194;-69
2023/03/29 03:09:46;;;;;;;1.00;1.00;;;19.40;51.40;;;;;;4968020;28;20197;-69
2023/03/29 03:12:13;;;;;;;1.50;1.40;;;19.40;51.40;;;;;;4963145;28;20197;-70
2023/03/29 03:14:39;;;;;;;1.60;0.90;;;19.50;51.50;;;;;;4939036;28;20206;-68
2023/03/29 03:17:05;;;;;;;1.15;1.08;;;19.40;51.40;;;;;;4969076;28;20193;-68
2023/03/29 03:19:32;;;;;;;0.98;0.98;;;19.50;51.50;;;;;;4967556;28;20182;-68
2023/03/29 03:21:58;;;;;;;1.05;1.02;;;19.40;51.40;;;;;;4971304;28;20245;-69
2023/03/29 03:24:24;;;;;;;1.55;1.35;;;19.50;51.50;;;;;;4987097;28;20204;-69
2023/03/29 03:26:50;;;;;;;1.30;1.20;;;19.40;51.40;;;;;;4958382;28;20202;-68
2023/03/29 03:29:17;;;;;;;1.20;1.10;;;19.50;51.50;;;;;;4973813;28;20193;-69
2023/03/29 03:32:04;;;;;;;0.90;0.90;;;19.40;51.40;;;;;;4945488;28;20205;-69
2023/03/29 03:34:55;;;;;;;1.10;0.95;;;19.40;51.40;;;;;;4971558;28;20304;-69
2023/03/29 03:37:24;;;;;;;1.63;1.13;;;19.40;51.40;;;;;;4951063;28;20189;-68
2023/03/29 03:39:50;;;;;;;1.17;1.13;;;19.40;51.40;;;;;;4967294;28;20437;-69
2023/03/29 03:42:16;;;;;;;1.20;1.10;;;19.50;51.50;;;;;;4973585;28;20186;-69
2023/03/29 03:44:44;;;;;;;0.90;0.90;;;19.40;51.40;;;;;;4974155;28;20197;-69
2023/03/29 03:47:30;;;;;;;1.10;1.00;;;19.40;51.40;;;;;;4940000;28;20205;-69
2023/03/29 03:50:04;;;;;;;1.30;1.20;;;19.40;51.40;;;;;;4951439;28;20186;-69
2023/03/29 03:52:31;;;;;;;1.10;1.00;;;19.40;51.40;;;;;;4961723;28;20194;-69
2023/03/29 03:54:56;;;;;;;1.13;1.00;;;19.40;51.40;;;;;;4963794;28;20248;-70
2023/03/29 03:57:46;;;;;;;0.93;0.90;;;19.50;51.50;;;;;;4956068;28;20220;-69
2023/03/29 04:00:20;;;;;;;1.40;1.20;;;19.40;51.40;;;;;;4957804;28;20189;-69
2023/03/29 04:02:55;;;;;;;1.10;1.00;;;19.40;51.40;;;;;;4989050;28;20190;-69
2023/03/29 04:05:21;;;;;;;0.93;0.93;;;19.40;51.40;;;;;;4957737;28;20216;-68
2023/03/29 04:07:48;;;;;;;1.30;1.20;;;19.40;51.40;;;;;;4974344;28;20233;-68
2023/03/29 04:10:37;;;;;;;1.02;0.93;;;19.40;51.40;;;;;;4953975;28;20240;-68
2023/03/29 04:13:17;;;;;;;1.20;1.00;;;19.40;51.40;;;;;;4974048;28;20312;-69
2023/03/29 04:16:02;;;;;;;1.27;1.17;;;19.40;51.40;;;;;;4963475;28;20228;-69
2023/03/29 04:18:29;;;;;;;1.13;0.90;;;19.40;51.40;;;;;;4981274;28;20181;-67
2023/03/29 04:20:57;;;;;;;1.70;1.10;;;19.40;52.00;;;;;;4942085;28;20204;-69
2023/03/29 04:23:25;;;;;;;1.30;1.20;;;19.40;51.40;;;;;;4957440;28;20182;-69
2023/03/29 04:25:55;;;;;;;1.80;1.05;;;19.40;51.40;;;;;;4966345;28;20221;-69
2023/03/29 04:28:45;;;;;;;1.83;1.00;;;19.40;51.40;;;;;;4970176;28;20229;-69
2023/03/29 04:31:15;;;;;;;1.38;1.30;;;19.40;51.40;;;;;;4957006;28;20193;-69
2023/03/29 04:34:04;;;;;;;0.95;0.90;;;19.40;51.40;;;;;;4966068;28;20231;-68
2023/03/29 04:36:32;;;;;;;1.30;1.17;;;19.40;51.40;;;;;;4973887;28;20260;-69
2023/03/29 04:39:00;;;;;;;1.27;1.17;;;19.30;51.40;;;;;;4973192;28;20185;-68
2023/03/29 04:41:27;;;;;;;1.48;1.20;;;19.30;51.30;;;;;;4961983;28;20242;-69
2023/03/29 04:44:07;;;;;;;1.27;1.17;;;19.30;51.30;;;;;;4941402;28;20190;-68
2023/03/29 04:46:33;;;;;;;1.05;1.02;;;19.30;51.30;;;;;;4975503;28;20293;-68
2023/03/29 04:49:20;;;;;;;1.40;1.30;;;19.40;51.40;;;;;;4944053;28;20194;-68
2023/03/29 04:51:49;;;;;;;1.48;1.38;;;19.40;51.40;;;;;;4942100;28;20190;-69
2023/03/29 04:54:19;;;;;;;1.30;1.15;;;19.40;51.40;;;;;;4941857;28;20202;-68
2023/03/29 04:57:07;;;;;;;1.30;1.20;;;19.40;51.40;;;;;;4950208;28;20203;-69
2023/03/29 04:59:59;;;;;;;1.30;1.20;;;19.40;51.40;;;;;;4971524;28;20197;-69
2023/03/29 05:02:57;;;;;;;1.00;0.90;;;19.40;51.40;;;;;;4934216;28;20197;-68
2023/03/29 05:05:24;;;;;;;1.30;1.20;;;19.40;51.40;;;;;;4962466;28;20210;-69
2023/03/29 05:07:50;;;;;;;1.70;1.15;;;19.30;51.30;;;;;;4969942;28;20200;-70
2023/03/29 05:10:22;;;;;;;1.50;1.40;;;19.30;51.30;;;;;;4973088;28;20189;-70
2023/03/29 05:12:52;;;;;;;1.50;1.10;;;19.30;51.40;;;;;;4962342;28;20194;-69
2023/03/29 05:15:22;;;;;;;1.40;1.30;;;19.30;51.40;;;;;;4972003;28;20217;-70
2023/03/29 05:17:49;;;;;;;1.38;1.13;;;19.40;51.40;;;;;;4972748;28;20216;-70
2023/03/29 05:20:16;;;;;;;1.38;1.13;;;19.40;51.40;;;;;;4972565;28;20182;-70
2023/03/29 05:22:43;;;;;;;1.25;1.25;;;19.30;51.40;;;;;;4940459;28;20189;-69
2023/03/29 05:25:16;;;;;;;1.10;1.10;;;19.30;51.30;;;;;;4971322;28;20273;-70
2023/03/29 05:27:44;;;;;;;1.25;1.15;;;19.40;51.40;;;;;;4988887;28;20194;-70
2023/03/29 05:30:14;;;;;;;1.88;1.23;;;19.40;51.40;;;;;;4986680;28;20214;-71
2023/03/29 05:32:50;;;;;;;1.10;1.00;;;19.40;51.40;;;;;;4964998;28;20218;-70
2023/03/29 05:35:23;;;;;;;2.45;1.00;;;19.30;51.40;;;;;;4947168;28;20217;-70
2023/03/29 05:37:50;;;;;;;1.20;1.10;;;19.40;51.40;;;;;;4988304;28;20189;-71
2023/03/29 05:40:16;;;;;;;1.35;1.23;;;19.30;51.40;;;;;;4980417;28;20181;-70
2023/03/29 05:43:04;;;;;;;1.30;1.20;;;19.30;51.40;;;;;;4951291;28;20209;-69
2023/03/29 05:45:32;;;;;;;1.95;1.23;;;19.40;51.40;;;;;;4979398;28;20248;-69
2023/03/29 05:47:58;;;;;;;2.22;1.40;;;19.30;51.40;;;;;;4970186;28;20221;-68
2023/03/29 05:50:23;;;;;;;1.38;1.25;;;19.30;51.40;;;;;;4986312;28;20185;-69
2023/03/29 05:52:50;;;;;;;1.33;1.23;;;19.30;51.40;;;;;;4986530;28;20198;-69
2023/03/29 05:55:17;;;;;;;1.90;1.27;;;19.30;51.40;;;;;;5016590;23;20542;-73
2023/03/29 05:57:43;;;;;;;1.50;1.13;;;19.30;51.40;;;;;;4987419;28;20192;-72
2023/03/29 06:00:22;;;;;;;1.50;1.27;;;19.30;51.40;;;;;;4980176;28;20208;-72
2023/03/29 06:02:55;;;;;;;1.77;1.20;;;19.40;51.50;;;;;;4989612;28;20191;-72
2023/03/29 06:05:22;;;;;;;3.25;1.20;;;19.30;51.40;;;;;;4987956;28;20204;-72
2023/03/29 06:07:57;;;;;;;2.50;1.20;;;19.30;51.40;;;;;;4980092;28;20196;-72
2023/03/29 06:10:50;;;;;;;1.42;1.30;;;19.30;51.40;;;;;;4976732;28;20247;-72
2023/03/29 06:13:45;;;;;;;1.77;1.23;;;19.30;51.40;;;;;;4977348;28;20281;-72
2023/03/29 06:16:12;;;;;;;1.40;1.30;;;19.30;51.40;;;;;;4965532;28;20312;-73
2023/03/29 06:18:39;;;;;;;1.15;1.15;;;19.30;51.40;;;;;;4970624;28;20177;-72
2023/03/29 06:21:06;;;;;;;1.95;1.20;;;19.40;51.50;;;;;;4968109;28;20189;-72
2023/03/29 06:23:32;;;;;;;1.40;1.30;;;19.30;51.40;;;;;;4980918;28;20180;-72
2023/03/29 06:25:59;;;;;;;1.20;1.17;;;19.30;51.40;;;;;;4979538;28;20207;-72
2023/03/29 06:28:25;;;;;;;1.33;1.23;;;19.30;51.40;;;;;;4968717;28;20188;-72
2023/03/29 06:30:55;;;;;;;1.48;1.38;;;19.40;51.50;;;;;;4991513;28;20212;-72
2023/03/29 06:33:21;;;;;;;1.55;1.30;;;19.30;51.40;;;;;;5008222;28;20546;-72
2023/03/29 06:35:53;;;;;;;1.85;1.23;;;19.30;51.40;;;;;;4995606;28;20218;-72
2023/03/29 06:38:27;;;;;;;1.30;1.20;;;19.30;51.40;;;;;;4995395;28;20238;-72
2023/03/29 06:41:11;;;;;;;1.30;1.20;;;19.30;51.40;;;;;;4982070;28;20641;-72
2023/03/29 06:43:56;;;;;;;2.88;1.30;;;19.30;51.40;;;;;;4992758;28;20735;-73
2023/03/29 06:46:29;;;;;;;1.55;1.45;;;19.30;51.40;;;;;;4980615;28;20206;-72
2023/03/29 06:49:00;;;;;;;2.55;1.20;;;19.30;51.40;;;;;;5003713;28;20239;-72
2023/03/29 06:51:34;;;;;;;1.50;1.40;;;19.30;51.40;;;;;;4988969;28;20180;-72
2023/03/29 06:54:01;;;;;;;1.65;1.40;;;19.30;51.40;;;;;;4989279;28;20212;-72
2023/03/29 06:56:28;;;;;;;1.50;1.20;;;19.30;51.40;;;;;;4984031;28;20216;-72
2023/03/29 06:59:03;;;;;;;2.10;1.50;;;19.30;51.40;;;;;;4976074;28;20280;-72
2023/03/29 07:01:37;;;;;;;1.83;1.48;;;19.40;51.50;;;;;;4984116;28;20207;-72
2023/03/29 07:04:16;;;;;;;1.23;1.10;;;19.40;51.50;;;;;;4995171;28;20184;-72
2023/03/29 07:07:18;;;;;;;1.30;1.23;;;19.30;51.40;;;;;;4996193;28;20315;-72
2023/03/29 07:09:52;;;;;;;1.27;1.17;;;19.40;51.40;;;;;;4999652;28;20754;-72
2023/03/29 07:12:21;;;;;;;1.10;1.00;;;19.40;51.50;;;;;;5005435;28;20201;-72
2023/03/29 07:14:47;;;;;;;1.30;1.20;;;19.30;52.00;;;;;;4994753;28;20212;-72
2023/03/29 07:17:13;;;;;;;1.35;1.20;;;19.30;51.40;;;;;;5016226;28;20703;-72
2023/03/29 07:19:40;;;;;;;1.67;1.30;;;19.30;51.40;;;;;;4985593;28;20239;-72
2023/03/29 07:22:14;;;;;;;1.50;1.00;;;19.30;51.40;;;;;;4997832;28;20192;-72
2023/03/29 07:24:50;;;;;;;2.45;1.20;;;19.30;51.40;;;;;;5000461;28;20231;-72
2023/03/29 07:27:16;;;;;;;1.60;1.30;;;19.30;51.40;;;;;;4996409;28;20216;-73
2023/03/29 07:29:48;;;;;;;1.48;1.10;;;19.40;51.50;;;;;;4985639;28;20230;-73
2023/03/29 07:32:13;;;;;;;1.00;1.00;;;19.30;51.40;;;;;;4996701;28;20286;-72
2023/03/29 07:34:42;;;;;;;1.20;1.10;;;19.40;51.50;;;;;;4994270;28;20216;-72
2023/03/29 07:37:15;;;;;;;1.25;1.15;;;19.30;51.40;;;;;;4972539;28;20206;-72
2023/03/29 07:39:43;;;;;;;1.33;1.23;;;19.40;51.40;;;;;;4985426;28;20188;-72
2023/03/29 07:42:35;;;;;;;1.30;1.20;;;19.30;51.40;;;;;;5010566;28;20195;-72
2023/03/29 07:45:04;;;;;;;1.55;1.38;;;19.40;51.50;;;;;;4990994;28;20540;-72
2023/03/29 07:47:37;;;;;;;1.40;1.20;;;19.40;51.40;;;;;;4998907;28;20199;-72
2023/03/29 07:50:03;;;;;;;1.38;1.10;;;19.40;51.40;;;;;;4982612;28;20189;-72
2023/03/29 07:52:29;;;;;;;1.73;1.20;;;19.40;51.40;;;;;;4998360;28;20188;-73
2023/03/29 07:54:56;;;;;;;2.38;1.65;;;19.40;51.40;;;;;;4995432;28;20334;-72
2023/03/29 07:57:26;;;;;;;1.55;1.40;;;19.40;51.40;;;;;;4998465;28;20216;-72
2023/03/29 07:59:54;;;;;;;1.55;1.33;;;19.40;51.50;;;;;;5006245;28;20263;-72
2023/03/29 08:02:24;;;;;;;1.40;1.30;;;19.40;51.40;;;;;;5006992;28;20191;-72
2023/03/29 08:04:55;;;;;;;1.25;1.10;;;19.40;51.40;;;;;;4991284;28;20287;-72
2023/03/29 08:07:45;;;;;;;1.35;1.15;;;19.40;51.40;;;;;;5000444;28;20192;-72
2023/03/29 08:10:18;;;;;;;1.42;1.10;;;19.40;51.50;;;;;;4989220;28;20188;-72
2023/03/29 08:13:07;;;;;;;1.20;1.10;;;19.40;51.40;;;;;;5005890;28;20216;-72
2023/03/29 08:15:59;;;;;;;1.15;1.00;;;19.40;51.40;;;;;;4990207;28;20230;-72
2023/03/29 08:18:31;;;;;;;1.67;1.58;;;19.40;51.40;;;;;;5009834;28;20276;-72
2023/03/29 08:20:57;;;;;;;2.10;1.17;;;19.40;51.40;;;;;;4995668;28;20688;-72
2023/03/29 08:23:23;;;;;;;2.00;1.30;;;19.40;51.40;;;;;;4994197;28;20185;-72
2023/03/29 08:26:01;;;;;;;1.92;1.30;;;19.40;51.40;;;;;;4978218;28;20244;-72
2023/03/29 08:28:26;;;;;;;1.27;1.20;;;19.40;51.40;;;;;;4982403;28;20191;-72
2023/03/29 08:30:53;;;;;;;1.85;1.30;;;19.40;51.40;;;;;;4992812;28;20189;-72
2023/03/29 08:33:19;;;;;;;1.52;1.30;;;19.40;51.40;;;;;;4981125;28;20203;-72
2023/03/29 08:35:51;;;;;;;1.60;1.40;;;19.50;51.50;;;;;;4998440;28;20212;-72
2023/03/29 08:38:29;;;;;;;1.50;1.13;;;19.50;51.50;;;;;;4977063;28;20277;-72
2023/03/29 08:40:55;;;;;;;1.17;1.10;;;19.50;51.50;;;;;;4950735;28;20208;-72
2023/03/29 08:43:44;;;;;;;1.27;1.15;;;19.40;51.40;;;;;;4998386;28;20257;-72
2023/03/29 08:46:56;;;;;;;1.10;1.10;;;19.40;51.40;;;;;;4966553;28;20270;-72
2023/03/29 08:49:32;;;;;;;1.77;1.10;;;19.40;51.40;;;;;;4992950;28;20177;-72
2023/03/29 08:52:10;;;;;;;1.27;1.17;;;19.40;51.40;;;;;;4982050;28;20235;-72
2023/03/29 08:54:50;;;;;;;1.52;1.42;;;19.40;51.40;;;;;;4997254;28;20203;-72
2023/03/29 08:57:47;;;;;;;1.30;1.20;;;19.40;51.40;;;;;;4991187;28;20196;-72
2023/03/29 09:00:44;;;;;;;1.67;1.58;;;19.50;51.50;;;;;;4991418;28;20265;-72
2023/03/29 09:03:31;;;;;;;2.70;1.38;;;19.50;51.50;;;;;;4978336;28;20284;-72
2023/03/29 09:06:09;;;;;;;1.63;1.45;;;19.40;51.40;;;;;;4997077;28;20208;-72
2023/03/29 09:08:45;;;;;;;1.58;1.40;;;19.40;51.40;;;;;;5000076;28;20191;-72
2023/03/29 09:11:23;;;;;;;1.40;1.30;;;19.40;51.40;;;;;;4985574;28;20198;-72
2023/03/29 09:13:58;;;;;;;1.30;1.20;;;19.40;51.40;;;;;;4984172;28;20188;-73
2023/03/29 09:16:42;;;;;;;2.25;1.10;;;19.40;51.40;;;;;;4993752;28;20204;-72
2023/03/29 09:19:53;;;;;;;1.80;1.55;;;19.40;51.40;;;;;;5011394;28;20217;-72
2023/03/29 09:23:06;;;;;;;1.75;1.40;;;19.40;51.40;;;;;;4967648;28;20203;-71
2023/03/29 09:25:52;;;;;;;2.25;1.67;;;19.40;51.40;;;;;;4965691;28;20255;-72
2023/03/29 09:28:35;;;;;;;2.88;1.40;;;19.40;51.40;;;;;;4976133;28;20695;-72
2023/03/29 09:31:15;;;;;;;1.67;1.58;;;19.40;51.40;;;;;;4977110;28;20200;-73
2023/03/29 09:34:13;;;;;;;2.45;1.88;;;19.40;51.40;;;;;;4982561;28;20250;-72
2023/03/29 09:37:06;;;;;;;2.67;1.30;;;19.50;51.50;;;;;;4974701;28;20246;-72
2023/03/29 09:39:32;;;;;;;2.83;1.30;;;19.40;51.40;;;;;;4981645;28;20180;-72
2023/03/29 09:42:10;;;;;;;2.63;1.65;;;19.50;51.50;;;;;;4988693;28;20216;-72
2023/03/29 09:44:44;;;;;;;1.95;1.73;;;19.50;51.40;;;;;;5001347;28;20279;-72
2023/03/29 09:47:26;;;;;;;1.67;1.50;;;19.50;51.40;;;;;;4988183;28;20366;-72
2023/03/29 09:50:03;;;;;;;1.77;1.63;;;19.50;51.40;;;;;;4981558;28;20192;-72
2023/03/29 09:52:29;;;;;;;1.70;1.60;;;19.50;51.40;;;;;;4974199;28;20184;-73
2023/03/29 09:55:14;;;;;;;1.98;1.60;;;19.50;51.40;;;;;;4995291;28;20204;-73
2023/03/29 09:58:21;;;;;;;1.73;1.63;;;19.50;51.40;;;;;;4973524;28;20707;-72
2023/03/29 10:00:50;;;;;;;1.45;1.35;;;19.50;51.40;;;;;;4997209;28;20184;-72
2023/03/29 10:03:21;;;;;;;2.17;1.30;;;19.50;51.50;;;;;;4994246;28;20183;-72
2023/03/29 10:05:59;;;;;;;1.75;1.52;;;19.50;51.40;;;;;;4969870;28;20252;-72
2023/03/29 10:08:34;;;;;;;1.75;1.50;;;19.50;51.40;;;;;;4981384;28;20187;-72
2023/03/29 10:11:29;;;;;;;1.63;1.35;;;19.50;51.50;;;;;;4988106;28;20264;-72
2023/03/29 10:14:16;;;;;;;1.63;1.50;;;19.50;51.40;;;;;;4992047;28;20250;-73
2023/03/29 10:16:44;;;;;;;1.58;1.40;;;19.50;51.40;;;;;;4973937;28;20204;-72
2023/03/29 10:19:29;;;;;;;1.30;1.20;;;19.50;51.40;;;;;;4977705;28;20276;-73
2023/03/29 10:22:15;;;;;;;1.90;1.70;;;19.50;51.40;;;;;;4995674;28;20195;-72
2023/03/29 10:24:50;;;;;;;2.42;1.45;;;19.50;51.40;;;;;;5011653;28;20188;-72
2023/03/29 10:27:25;;;;;;;1.55;1.45;;;19.50;51.40;;;;;;4994503;28;20216;-73
2023/03/29 10:29:53;;;;;;;1.30;1.20;;;19.50;51.40;;;;;;4987431;28;20195;-72
2023/03/29 10:32:26;;;;;;;1.60;1.30;;;19.50;51.30;;;;;;4992972;28;20755;-72
2023/03/29 10:34:53;;;;;;;1.65;1.48;;;19.50;51.20;;;;;;4986336;28;20213;-72
2023/03/29 10:37:21;;;;;;;1.42;1.33;;;19.60;51.30;;;;;;4979510;28;20229;-72
2023/03/29 10:39:49;;;;;;;1.63;1.45;;;19.60;51.30;;;;;;4978576;28;20192;-72
2023/03/29 10:42:21;;;;;;;2.00;1.40;;;19.60;51.30;;;;;;4980237;28;20285;-73
2023/03/29 10:44:58;;;;;;;1.58;1.40;;;19.60;51.30;;;;;;5009164;28;20200;-72
2023/03/29 10:47:24;;;;;;;1.60;1.50;;;19.60;51.30;;;;;;4999631;28;20198;-73
2023/03/29 10:49:53;;;;;;;2.10;1.23;;;19.60;51.30;;;;;;4984895;28;20200;-73
2023/03/29 10:52:20;;;;;;;1.88;1.50;;;19.60;51.30;;;;;;5015427;28;20204;-72
2023/03/29 10:54:49;;;;;;;1.75;1.48;;;19.60;51.30;;;;;;4998420;28;20207;-73
2023/03/29 10:57:39;;;;;;;1.30;1.13;;;19.60;51.20;;;;;;4981974;28;20217;-72
2023/03/29 11:00:26;;;;;;;2.00;1.40;;;19.60;51.20;;;;;;4998730;28;20188;-73
2023/03/29 11:03:16;;;;;;;1.50;1.40;;;19.60;51.10;;;;;;4996396;28;20196;-73
2023/03/29 11:05:56;;;;;;;3.35;1.50;;;19.60;51.20;;;;;;4984638;28;20215;-74
2023/03/29 11:08:58;;;;;;;1.80;1.17;;;19.60;51.70;;;;;;4996580;28;20185;-72
2023/03/29 11:12:01;;;;;;;1.67;1.40;;;19.70;51.70;;;;;;4877854;29;20695;-73
2023/03/29 11:14:56;;;;;;;2.60;1.50;;;19.70;51.70;;;;;;4982364;28;20200;-71
2023/03/29 11:17:51;;;;;;;1.65;1.10;;;19.70;52.00;;;;;;4988162;28;20199;-73
2023/03/29 11:20:40;;;;;;;4.80;1.20;;;19.80;52.20;;;;;;5004232;28;20200;-73
2023/03/29 11:23:25;;;;;;;3.78;1.60;;;19.80;52.10;;;;;;5010710;28;20251;-73
2023/03/29 11:26:21;;;;;;;2.40;1.33;;;19.70;52.10;;;;;;5001613;28;20310;-73
2023/03/29 11:29:03;;;;;;;1.58;1.30;;;19.70;52.00;;;;;;4981608;28;20185;-73
2023/03/29 11:31:46;;;;;;;1.35;1.08;;;19.70;51.90;;;;;;4992472;28;20271;-73
2023/03/29 11:35:11;;;;;;;3.15;1.30;;;19.70;51.80;;;;;;5013875;28;20208;-73
2023/03/29 11:38:04;;;;;;;4.45;1.40;;;19.70;52.20;;;;;;4960941;28;20208;-73
2023/03/29 11:40:57;;;;;;;1.10;1.00;;;19.70;52.10;;;;;;5011025;28;20199;-73
2023/03/29 11:43:36;;;;;;;2.30;1.30;;;19.70;52.00;;;;;;4978116;28;20184;-72
2023/03/29 11:46:15;;;;;;;2.03;1.30;;;19.70;52.00;;;;;;5003884;28;20597;-73
2023/03/29 11:49:41;;;;;;;2.42;1.20;;;19.70;51.80;;;;;;4983670;28;20185;-73
2023/03/29 11:52:32;;;;;;;3.03;1.35;;;19.70;51.70;;;;;;4954322;28;20200;-73
2023/03/29 11:55:27;;;;;;;1.20;1.10;;;19.70;51.70;;;;;;4961990;28;20208;-73
2023/03/29 11:57:58;;;;;;;2.15;1.20;;;19.70;51.70;;;;;;4977099;23;20330;-69
2023/03/29 12:00:36;;;;;;;2.75;1.38;;;19.70;52.30;;;;;;4943735;29;20191;-69
2023/03/29 12:03:18;;;;;;;2.30;1.20;;;19.70;51.90;;;;;;4968279;28;20186;-70
2023/03/29 12:05:56;;;;;;;1.42;1.30;;;19.70;51.70;;;;;;4952673;28;20281;-70
2023/03/29 12:08:36;;;;;;;3.40;1.27;;;19.70;51.70;;;;;;4954064;28;20218;-70
2023/03/29 12:11:29;;;;;;;1.85;1.30;;;19.70;51.60;;;;;;4946254;28;20199;-70
2023/03/29 12:14:15;;;;;;;1.15;1.05;;;19.70;51.50;;;;;;4943517;28;20211;-70
2023/03/29 12:16:50;;;;;;;1.52;1.10;;;19.70;51.60;;;;;;4940885;28;20237;-70
2023/03/29 12:19:37;;;;;;;1.35;1.10;;;19.70;51.60;;;;;;4954363;28;20194;-70
2023/03/29 12:22:06;;;;;;;1.23;1.13;;;19.70;51.50;;;;;;4946646;29;20249;-70
2023/03/29 12:24:40;;;;;;;2.38;1.15;;;19.70;51.40;;;;;;4954039;28;20218;-70
2023/03/29 12:27:27;;;;;;;2.97;1.50;;;19.70;51.50;;;;;;4954392;28;20313;-70
2023/03/29 12:30:22;;;;;;;1.20;1.10;;;19.70;51.60;;;;;;4970520;28;20269;-70
2023/03/29 12:33:11;;;;;;;2.05;1.45;;;19.70;51.50;;;;;;4941557;29;20195;-70
2023/03/29 12:36:12;;;;;;;1.27;1.15;;;19.70;51.50;;;;;;4955898;28;20233;-70
2023/03/29 12:38:43;;;;;;;1.20;1.10;;;19.70;51.60;;;;;;4955380;28;20234;-68
2023/03/29 12:41:34;;;;;;;1.50;1.30;;;19.70;51.60;;;;;;4935918;29;20241;-70
2023/03/29 12:44:02;;;;;;;2.67;1.17;;;19.70;51.50;;;;;;4936195;29;20294;-71
2023/03/29 12:46:39;;;;;;;1.80;1.35;;;19.70;51.60;;;;;;4948065;28;20206;-70
2023/03/29 12:49:32;;;;;;;1.40;1.30;;;19.70;51.60;;;;;;4962102;28;20289;-69
2023/03/29 12:52:02;;;;;;;1.58;1.33;;;19.70;51.60;;;;;;4945921;28;20586;-70
2023/03/29 12:54:31;;;;;;;2.53;1.70;;;19.70;51.60;;;;;;4954630;28;20218;-69
2023/03/29 12:57:38;;;;;;;1.95;1.33;;;19.70;51.60;;;;;;4953762;28;20233;-69
2023/03/29 13:00:35;;;;;;;3.15;1.80;;;19.70;51.60;;;;;;4943390;28;20274;-69
2023/03/29 13:03:18;;;;;;;2.15;1.25;;;19.70;51.60;;;;;;4954891;28;20186;-69
2023/03/29 13:05:44;;;;;;;3.10;1.88;;;19.70;51.60;;;;;;4955472;28;20690;-69
2023/03/29 13:08:42;;;;;;;3.03;1.40;;;19.70;51.60;;;;;;4951491;28;20207;-68
2023/03/29 13:11:32;;;;;;;3.33;1.75;;;19.70;51.60;;;;;;4955104;28;20199;-69
2023/03/29 13:14:07;;;;;;;5.03;1.80;;;19.70;51.60;;;;;;4969955;28;20206;-68
2023/03/29 13:16:34;;;;;;;2.22;1.85;;;19.70;51.70;;;;;;4953502;28;20292;-69
2023/03/29 13:19:50;;;;;;;2.92;1.80;;;19.70;51.70;;;;;;4969316;28;20226;-69
2023/03/29 13:22:40;;;;;;;3.00;2.25;;;19.70;51.70;;;;;;4889315;28;20751;-69
2023/03/29 13:25:43;;;;;;;4.63;2.30;;;19.70;51.60;;;;;;4968696;28;20284;-69
2023/03/29 13:28:44;;;;;;;4.20;2.20;;;19.70;51.70;;;;;;4952309;28;20233;-69
2023/03/29 13:31:49;;;;;;;3.78;2.38;;;19.70;51.80;;;;;;4953226;29;20198;-70
2023/03/29 13:34:38;;;;;;;3.50;2.15;;;19.70;51.90;;;;;;4953080;29;20248;-69
2023/03/29 13:37:19;;;;;;;5.20;2.40;;;19.70;51.70;;;;;;4968949;28;20214;-70
2023/03/29 13:39:54;;;;;;;5.47;2.78;;;19.70;51.70;;;;;;4953328;29;20249;-69